Time;durP1;ratioP1;P1;durP2;ratioP2;P2;SDS_P1;SDS_P2;PMS_P1;PMS_P2;Temp;Humidity;BMP_temperature;BMP_pressure;BME280_temperature;BME280_humidity;BME280_pressure;Samples;Min_cycle;Max_cycle;Signal;HPM_P1;HPM_P2
2022/01/20 00:02:22;;;;;;;5.13;3.65;;;3.90;99.90;;;;;;4976949;28;20054;-70
2022/01/20 00:04:52;;;;;;;7.38;3.65;;;3.90;99.90;;;;;;5007897;28;20077;-70
2022/01/20 00:07:31;;;;;;;8.38;4.18;;;3.90;99.90;;;;;;5006766;28;20182;-70
2022/01/20 00:26:44;;;;;;;8.57;4.57;;;3.90;99.90;;;;;;5009669;28;20081;-70
2022/01/20 00:29:21;;;;;;;8.27;4.57;;;3.90;99.90;;;;;;5009154;28;20053;-70
2022/01/20 00:32:03;;;;;;;6.93;4.38;;;3.90;99.90;;;;;;5009768;28;20049;-70
2022/01/20 00:35:05;;;;;;;10.05;5.15;;;3.90;99.90;;;;;;5008586;28;20052;-71
2022/01/20 00:37:31;;;;;;;7.35;4.75;;;3.90;99.90;;;;;;4986642;28;20049;-70
2022/01/20 00:40:00;;;;;;;8.38;4.40;;;3.90;99.90;;;;;;4991963;28;20132;-70
2022/01/20 00:42:27;;;;;;;9.15;4.57;;;3.90;99.90;;;;;;5009822;28;20156;-70
2022/01/20 00:44:57;;;;;;;8.90;4.65;;;3.90;99.90;;;;;;5008568;28;20050;-70
2022/01/20 00:47:24;;;;;;;7.00;4.40;;;3.90;99.90;;;;;;5010274;28;20441;-70
2022/01/20 00:49:52;;;;;;;9.18;6.88;;;3.90;99.90;;;;;;4992401;28;20134;-70
2022/01/20 00:52:19;;;;;;;6.18;4.75;;;3.90;99.90;;;;;;5010290;28;20049;-70
2022/01/20 00:54:47;;;;;;;10.80;3.88;;;3.90;99.90;;;;;;5017398;28;20042;-70
2022/01/20 00:57:14;;;;;;;8.80;3.97;;;3.90;99.90;;;;;;5010125;28;20104;-74
2022/01/20 00:59:42;;;;;;;10.20;4.55;;;3.90;99.90;;;;;;5007983;28;20477;-74
2022/01/20 01:02:12;;;;;;;7.15;4.60;;;3.90;99.90;;;;;;5010194;28;20050;-74
2022/01/20 01:04:41;;;;;;;7.93;4.50;;;3.90;99.90;;;;;;4974704;28;20089;-74
2022/01/20 01:07:28;;;;;;;8.07;4.10;;;3.90;99.90;;;;;;5023536;28;20335;-73
2022/01/20 01:09:56;;;;;;;8.75;4.97;;;3.90;99.90;;;;;;4979989;28;20108;-73
2022/01/20 01:12:33;;;;;;;7.75;4.80;;;3.90;99.90;;;;;;4978426;28;20042;-73
2022/01/20 01:15:02;;;;;;;7.28;4.30;;;3.90;99.90;;;;;;4997056;28;20060;-74
2022/01/20 01:20:21;;;;;;;8.55;4.32;;;3.90;99.90;;;;;;5014244;28;20050;-74
2022/01/20 01:22:49;;;;;;;8.57;4.80;;;3.90;99.90;;;;;;4993892;28;20108;-73
2022/01/20 01:25:17;;;;;;;7.68;4.38;;;3.90;99.90;;;;;;5012560;28;20457;-74
2022/01/20 01:27:46;;;;;;;7.20;4.57;;;3.90;99.90;;;;;;4995649;28;20054;-74
2022/01/20 01:30:36;;;;;;;9.35;4.78;;;3.90;99.90;;;;;;4996067;28;20514;-74
2022/01/20 01:33:07;;;;;;;8.82;4.90;;;3.90;99.90;;;;;;4994993;28;20103;-73
2022/01/20 01:35:39;;;;;;;9.60;4.80;;;3.90;99.90;;;;;;4993608;28;20057;-73
2022/01/20 01:38:35;;;;;;;10.07;5.13;;;3.90;99.90;;;;;;4992035;28;20054;-73
2022/01/20 01:41:08;;;;;;;8.55;5.03;;;3.90;99.90;;;;;;4977141;28;20160;-73
2022/01/20 01:43:37;;;;;;;10.55;5.10;;;3.90;99.90;;;;;;4994835;28;20089;-74
2022/01/20 01:46:05;;;;;;;9.05;7.30;;;3.90;99.90;;;;;;4995735;28;20054;-74
2022/01/20 01:48:37;;;;;;;6.47;4.97;;;3.90;99.90;;;;;;5010785;28;20046;-74
2022/01/20 01:51:04;;;;;;;9.50;5.22;;;3.90;99.90;;;;;;5020868;28;20054;-73
2022/01/20 01:53:32;;;;;;;12.60;5.00;;;3.80;99.90;;;;;;4995217;28;20085;-74
2022/01/20 01:56:00;;;;;;;7.55;4.50;;;3.80;99.90;;;;;;5010545;28;20413;-74
2022/01/20 01:58:27;;;;;;;6.47;4.80;;;3.80;99.90;;;;;;5009579;28;20208;-74
2022/01/20 02:01:09;;;;;;;21.30;17.23;;;3.80;99.90;;;;;;4990116;28;20057;-73
2022/01/20 02:03:45;;;;;;;8.55;5.03;;;3.80;99.90;;;;;;4992470;28;20149;-74
2022/01/20 02:06:46;;;;;;;10.52;5.20;;;3.80;99.90;;;;;;5005150;28;20136;-74
2022/01/20 02:09:29;;;;;;;13.80;5.60;;;3.80;99.90;;;;;;4995957;28;20100;-74
2022/01/20 02:20:14;;;;;;;11.43;5.20;;;3.80;99.90;;;;;;5023195;28;20042;-73
2022/01/20 02:22:54;;;;;;;13.00;5.57;;;3.80;99.90;;;;;;5011991;28;20061;-74
2022/01/20 02:25:31;;;;;;;11.88;5.00;;;3.70;99.90;;;;;;4994975;28;20136;-74
2022/01/20 02:28:01;;;;;;;9.32;5.55;;;3.70;99.90;;;;;;5010883;28;20050;-74
2022/01/20 02:30:30;;;;;;;11.05;4.72;;;3.70;99.90;;;;;;5007127;28;20451;-74
2022/01/20 02:33:01;;;;;;;8.20;5.20;;;3.70;99.90;;;;;;4973900;28;20070;-74
2022/01/20 02:35:34;;;;;;;10.43;5.00;;;3.70;99.90;;;;;;4975182;28;20560;-74
2022/01/20 02:38:09;;;;;;;9.85;5.50;;;3.70;99.90;;;;;;4987652;28;20042;-74
2022/01/20 02:46:10;;;;;;;13.15;5.53;;;3.70;99.90;;;;;;4976467;28;20053;-74
2022/01/20 02:48:38;;;;;;;9.50;5.20;;;3.70;99.90;;;;;;5010272;28;20050;-74
2022/01/20 02:51:07;;;;;;;8.65;4.97;;;3.60;99.90;;;;;;4993299;28;20065;-74
2022/01/20 02:53:35;;;;;;;11.25;5.10;;;3.70;99.90;;;;;;4978172;28;20057;-74
2022/01/20 02:56:03;;;;;;;15.50;5.97;;;3.70;99.90;;;;;;4987344;28;20140;-74
2022/01/20 02:58:31;;;;;;;16.17;5.95;;;3.70;99.90;;;;;;5010564;28;20046;-74
2022/01/20 03:00:59;;;;;;;9.40;5.45;;;3.60;99.90;;;;;;4993106;28;20053;-73
2022/01/20 03:03:27;;;;;;;12.00;5.47;;;3.60;99.90;;;;;;4991350;28;20058;-73
2022/01/20 03:05:55;;;;;;;15.32;6.18;;;3.50;99.90;;;;;;4986461;28;20050;-74
2022/01/20 03:08:23;;;;;;;12.43;5.82;;;3.50;99.90;;;;;;4963172;28;20069;-74
2022/01/20 03:10:51;;;;;;;11.70;5.72;;;3.60;99.90;;;;;;4997197;28;20096;-74
2022/01/20 03:13:19;;;;;;;10.23;5.60;;;3.50;99.90;;;;;;4976086;28;20049;-74
2022/01/20 03:15:46;;;;;;;28.58;25.60;;;3.50;99.90;;;;;;5009478;28;20096;-74
2022/01/20 03:18:14;;;;;;;12.60;6.72;;;3.50;99.90;;;;;;5011459;28;20510;-74
2022/01/20 03:20:41;;;;;;;8.98;6.43;;;3.50;99.90;;;;;;5011389;28;20108;-74
2022/01/20 03:23:10;;;;;;;15.98;7.15;;;3.40;99.90;;;;;;5007741;28;20049;-74
2022/01/20 03:25:39;;;;;;;11.80;6.50;;;3.40;99.90;;;;;;5009903;28;20053;-74
2022/01/20 03:28:06;;;;;;;19.95;6.75;;;3.40;99.90;;;;;;5008603;28;20045;-74
2022/01/20 03:30:34;;;;;;;11.73;7.03;;;3.40;99.90;;;;;;4993244;28;20476;-74
2022/01/20 03:33:02;;;;;;;11.60;7.60;;;3.40;99.90;;;;;;4990976;28;20045;-74
2022/01/20 03:35:29;;;;;;;18.50;7.22;;;3.40;99.90;;;;;;5009845;28;20046;-74
2022/01/20 03:38:19;;;;;;;12.05;7.57;;;3.40;99.90;;;;;;5010863;28;20050;-74
2022/01/20 03:40:49;;;;;;;16.05;7.18;;;3.40;99.90;;;;;;4991388;28;20108;-74
2022/01/20 03:43:17;;;;;;;13.90;7.03;;;3.40;99.90;;;;;;5009382;28;20061;-74
2022/01/20 03:45:49;;;;;;;12.85;6.50;;;3.40;99.90;;;;;;4991252;28;20085;-73
2022/01/20 03:48:16;;;;;;;12.57;7.30;;;3.40;99.90;;;;;;5010945;28;20054;-74
2022/01/20 03:51:00;;;;;;;11.30;7.63;;;3.40;99.90;;;;;;5007110;28;20136;-73
2022/01/20 03:53:35;;;;;;;14.48;6.57;;;3.40;99.90;;;;;;4993285;28;20495;-73
2022/01/20 03:56:06;;;;;;;;;;;3.40;99.90;;;;;;4977402;28;20387;-73
2022/01/20 03:58:52;;;;;;;15.48;6.72;;;3.40;99.90;;;;;;4989439;28;19961;-73
2022/01/20 04:01:20;;;;;;;15.30;7.32;;;3.30;99.90;;;;;;5009781;28;20086;-73
2022/01/20 04:04:14;;;;;;;11.98;6.72;;;3.30;99.90;;;;;;4990649;28;20081;-73
2022/01/20 04:06:54;;;;;;;19.95;8.35;;;3.30;99.90;;;;;;4992626;28;20042;-73
2022/01/20 04:09:21;;;;;;;14.85;6.72;;;3.30;99.90;;;;;;5005851;28;20566;-75
2022/01/20 04:11:51;;;;;;;14.45;6.72;;;3.30;99.90;;;;;;4992750;28;20054;-75
2022/01/20 04:14:20;;;;;;;20.10;7.03;;;3.30;99.90;;;;;;4992646;28;20058;-80
2022/01/20 04:17:00;;;;;;;12.40;6.90;;;3.30;99.90;;;;;;4992072;28;20132;-80
2022/01/20 04:19:32;;;;;;;11.05;7.88;;;3.20;99.90;;;;;;5007824;28;20050;-80
2022/01/20 04:22:01;;;;;;;50.92;44.63;;;3.30;99.90;;;;;;5007172;28;20502;-79
2022/01/20 04:24:31;;;;;;;16.75;7.38;;;3.30;99.90;;;;;;4988955;28;20156;-79
2022/01/20 04:27:00;;;;;;;15.15;6.65;;;3.20;99.90;;;;;;4996601;28;20531;-79
2022/01/20 04:29:29;;;;;;;14.55;7.68;;;3.20;99.90;;;;;;4992992;28;20081;-79
2022/01/20 04:31:57;;;;;;;16.60;7.28;;;3.20;99.90;;;;;;4976793;28;20519;-79
2022/01/20 04:34:25;;;;;;;16.80;7.32;;;3.20;99.90;;;;;;5005885;28;20503;-75
2022/01/20 04:36:54;;;;;;;14.77;7.82;;;3.30;99.90;;;;;;4973807;28;20052;-74
2022/01/20 04:39:26;;;;;;;18.35;8.57;;;3.30;99.90;;;;;;4990927;28;20054;-74
2022/01/20 04:41:55;;;;;;;19.70;9.50;;;3.30;99.90;;;;;;4977634;28;20132;-72
2022/01/20 04:44:38;;;;;;;12.63;7.38;;;3.20;99.90;;;;;;5013629;28;20062;-73
2022/01/20 04:47:17;;;;;;;;;;;3.30;99.90;;;;;;4994883;28;20046;-72
2022/01/20 04:58:02;;;;;;;18.83;8.50;;;3.20;99.90;;;;;;5017596;28;20046;-77
2022/01/20 05:00:32;;;;;;;10.93;7.07;;;3.20;99.90;;;;;;5009326;28;20074;-73
2022/01/20 05:03:18;;;;;;;13.30;6.93;;;3.20;99.90;;;;;;4991487;28;20565;-74
2022/01/20 05:05:47;;;;;;;12.40;7.40;;;3.30;99.90;;;;;;5023882;28;20049;-76
2022/01/20 05:08:22;;;;;;;14.23;7.22;;;3.40;99.90;;;;;;4998850;28;20057;-76
2022/01/20 05:10:52;;;;;;;16.52;7.60;;;3.30;99.90;;;;;;5002503;28;20058;-75
2022/01/20 05:13:26;;;;;;;13.15;7.32;;;3.30;99.90;;;;;;5011612;28;20081;-75
2022/01/20 05:15:55;;;;;;;16.02;7.10;;;3.30;99.90;;;;;;4996154;28;20618;-75
2022/01/20 05:18:24;;;;;;;13.57;8.00;;;3.30;99.90;;;;;;5012352;28;20137;-75
2022/01/20 05:20:53;;;;;;;14.52;7.43;;;3.30;99.90;;;;;;4993147;28;20314;-75
2022/01/20 05:23:21;;;;;;;12.93;7.97;;;3.30;99.90;;;;;;5010042;28;20049;-74
2022/01/20 05:25:48;;;;;;;16.88;7.75;;;3.30;99.90;;;;;;4995973;28;20463;-74
2022/01/20 05:28:18;;;;;;;16.80;8.25;;;3.30;99.90;;;;;;5011198;28;20081;-74
2022/01/20 05:30:46;;;;;;;10.43;8.63;;;3.30;99.90;;;;;;4973244;28;20058;-74
2022/01/20 05:33:24;;;;;;;13.88;6.15;;;3.30;99.90;;;;;;4984628;28;20052;-75
2022/01/20 05:35:51;;;;;;;18.67;9.48;;;3.40;99.90;;;;;;4993503;28;20081;-75
2022/01/20 05:38:19;;;;;;;19.10;8.05;;;3.30;99.90;;;;;;4993609;28;20054;-75
2022/01/20 05:40:50;;;;;;;15.95;8.05;;;3.30;99.90;;;;;;5007094;28;20042;-75
2022/01/20 05:43:18;;;;;;;21.88;9.20;;;3.30;99.90;;;;;;4997103;28;20056;-74
2022/01/20 05:45:49;;;;;;;16.27;8.63;;;3.30;99.90;;;;;;5021061;28;20532;-74
2022/01/20 05:48:20;;;;;;;13.27;6.85;;;3.30;99.90;;;;;;5002068;28;20384;-73
2022/01/20 05:51:08;;;;;;;24.27;21.95;;;3.30;99.90;;;;;;4998817;28;20156;-73
2022/01/20 05:53:35;;;;;;;18.50;8.82;;;3.30;99.90;;;;;;5007233;28;20108;-73
2022/01/20 05:56:03;;;;;;;19.05;8.85;;;3.30;99.90;;;;;;4995672;28;20068;-74
2022/01/20 05:58:36;;;;;;;16.33;9.15;;;3.20;99.90;;;;;;4977230;28;20081;-74
2022/01/20 06:01:04;;;;;;;11.80;7.97;;;3.20;99.90;;;;;;4988596;28;20474;-75
2022/01/20 06:03:38;;;;;;;15.82;8.55;;;3.30;99.90;;;;;;5005675;28;20407;-74
2022/01/20 06:06:14;;;;;;;18.77;9.20;;;3.20;99.90;;;;;;4993331;28;20046;-74
2022/01/20 06:08:43;;;;;;;14.20;8.50;;;3.30;99.90;;;;;;4995461;28;20054;-75
2022/01/20 06:11:13;;;;;;;12.43;7.40;;;3.30;99.90;;;;;;4993723;28;20409;-76
2022/01/20 06:13:41;;;;;;;15.10;12.93;;;3.30;99.90;;;;;;5027629;28;20406;-76
2022/01/20 06:16:09;;;;;;;18.42;6.97;;;3.30;99.90;;;;;;4984761;28;20140;-76
2022/01/20 06:18:37;;;;;;;12.80;6.40;;;3.40;99.90;;;;;;5009957;28;20435;-76
2022/01/20 06:21:04;;;;;;;13.32;6.72;;;3.40;99.90;;;;;;5015607;28;20145;-76
2022/01/20 06:23:34;;;;;;;14.73;7.35;;;3.40;99.90;;;;;;5021769;28;20139;-76
2022/01/20 06:26:05;;;;;;;14.93;12.10;;;3.40;99.90;;;;;;5010406;28;20116;-76
2022/01/20 06:28:34;;;;;;;12.77;7.43;;;3.40;99.90;;;;;;4988158;28;20064;-75
2022/01/20 06:31:05;;;;;;;12.50;7.35;;;3.50;99.90;;;;;;4999552;28;20137;-76
2022/01/20 06:33:33;;;;;;;13.23;7.72;;;3.40;99.90;;;;;;5019584;28;20088;-75
2022/01/20 06:36:01;;;;;;;16.77;8.20;;;3.40;99.90;;;;;;5019880;28;20046;-75
2022/01/20 06:38:30;;;;;;;13.50;7.15;;;3.40;99.90;;;;;;5008510;28;20414;-74
2022/01/20 06:41:01;;;;;;;10.98;7.53;;;3.40;99.90;;;;;;5002830;28;20125;-75
2022/01/20 06:43:33;;;;;;;15.02;7.80;;;3.40;99.90;;;;;;4992054;28;20131;-74
2022/01/20 06:46:01;;;;;;;15.35;8.55;;;3.30;99.90;;;;;;4987019;28;20046;-74
2022/01/20 06:48:51;;;;;;;10.98;7.40;;;3.30;99.90;;;;;;5009631;28;20041;-74
2022/01/20 06:51:31;;;;;;;18.85;7.38;;;3.30;99.90;;;;;;4985755;28;20057;-74
2022/01/20 06:53:59;;;;;;;12.35;6.97;;;3.30;99.90;;;;;;5004557;28;20050;-74
2022/01/20 06:56:28;;;;;;;14.45;7.20;;;3.30;99.90;;;;;;4940255;28;20057;-72
2022/01/20 06:58:55;;;;;;;11.68;7.00;;;3.20;99.90;;;;;;5020912;28;20052;-73
2022/01/20 07:01:23;;;;;;;31.92;22.67;;;3.20;99.90;;;;;;4986353;28;20042;-72
2022/01/20 07:03:53;;;;;;;11.10;7.35;;;3.10;99.90;;;;;;4985862;28;20058;-72
2022/01/20 07:06:21;;;;;;;15.93;8.88;;;3.10;99.90;;;;;;4992418;28;20053;-72
2022/01/20 07:09:15;;;;;;;12.30;7.22;;;3.10;99.90;;;;;;4980855;28;20145;-72
2022/01/20 07:11:45;;;;;;;15.95;7.30;;;3.10;99.90;;;;;;4993238;28;20058;-71
2022/01/20 07:14:12;;;;;;;17.38;7.97;;;3.20;99.90;;;;;;4991072;28;20511;-73
2022/01/20 07:16:40;;;;;;;39.30;29.38;;;3.20;99.90;;;;;;4992620;28;20084;-72
2022/01/20 07:19:07;;;;;;;12.05;7.93;;;3.30;99.90;;;;;;5008670;28;20060;-71
2022/01/20 07:21:35;;;;;;;15.05;8.93;;;3.30;99.90;;;;;;5005880;28;20097;-73
2022/01/20 07:24:06;;;;;;;16.23;7.82;;;3.20;99.90;;;;;;4991271;28;20054;-72
2022/01/20 07:26:34;;;;;;;22.02;9.07;;;3.30;99.90;;;;;;4976914;28;20060;-72
2022/01/20 07:29:10;;;;;;;16.48;9.30;;;3.40;99.90;;;;;;5008302;28;20053;-72
2022/01/20 07:31:38;;;;;;;10.93;8.25;;;3.40;99.90;;;;;;4992836;28;20434;-72
2022/01/20 07:34:05;;;;;;;14.48;9.13;;;3.40;99.90;;;;;;5007540;28;20132;-72
2022/01/20 07:36:33;;;;;;;13.35;9.43;;;3.40;99.90;;;;;;4992657;28;20045;-72
2022/01/20 07:39:00;;;;;;;12.77;8.65;;;3.40;99.90;;;;;;4992923;28;20042;-72
2022/01/20 07:41:28;;;;;;;16.25;9.52;;;3.50;99.90;;;;;;4992954;28;20054;-73
2022/01/20 07:43:56;;;;;;;11.70;8.35;;;3.50;99.90;;;;;;5006815;28;20387;-74
2022/01/20 07:46:45;;;;;;;15.75;8.65;;;3.50;99.90;;;;;;5010224;28;20056;-74
2022/01/20 07:49:15;;;;;;;9.95;8.40;;;3.50;99.90;;;;;;4992669;28;20041;-73
2022/01/20 07:51:43;;;;;;;14.20;9.90;;;3.60;99.90;;;;;;5008622;28;20045;-74
2022/01/20 07:54:11;;;;;;;11.57;9.30;;;3.60;99.90;;;;;;5007448;28;20065;-74
2022/01/20 07:56:41;;;;;;;13.68;8.90;;;3.50;99.90;;;;;;5002490;28;20046;-74
2022/01/20 07:59:10;;;;;;;10.40;9.10;;;3.50;99.90;;;;;;5009221;28;20068;-74
2022/01/20 08:01:43;;;;;;;14.55;9.40;;;3.40;99.90;;;;;;4990843;28;20526;-74
2022/01/20 08:04:13;;;;;;;13.00;8.95;;;3.40;99.90;;;;;;5006961;28;20064;-73
2022/01/20 08:06:40;;;;;;;20.13;18.65;;;3.40;99.90;;;;;;4992647;28;20580;-74
2022/01/20 08:09:17;;;;;;;14.88;13.30;;;3.50;99.90;;;;;;5008951;28;20050;-74
2022/01/20 08:12:07;;;;;;;18.25;12.25;;;3.40;99.90;;;;;;5006985;28;20050;-74
2022/01/20 08:14:40;;;;;;;14.20;12.55;;;3.40;99.90;;;;;;5017365;28;20048;-74
2022/01/20 08:17:12;;;;;;;22.13;20.50;;;3.40;99.90;;;;;;4988722;28;20589;-72
2022/01/20 08:19:45;;;;;;;17.33;15.48;;;3.50;99.90;;;;;;5010843;28;20367;-73
2022/01/20 08:22:13;;;;;;;15.90;9.48;;;3.50;99.90;;;;;;5013822;28;20096;-72
2022/01/20 08:24:41;;;;;;;15.20;10.10;;;3.40;99.90;;;;;;5013814;28;20065;-72
2022/01/20 08:27:09;;;;;;;23.15;18.88;;;3.40;99.90;;;;;;4996569;28;20108;-72
2022/01/20 08:29:37;;;;;;;14.27;9.00;;;3.40;99.90;;;;;;4978774;28;20056;-72
2022/01/20 08:32:06;;;;;;;16.17;10.30;;;3.40;99.90;;;;;;5019170;28;20451;-72
2022/01/20 08:34:45;;;;;;;15.80;9.95;;;3.40;99.90;;;;;;5008154;28;20046;-71
2022/01/20 08:37:43;;;;;;;21.98;9.90;;;3.40;99.90;;;;;;4993238;28;20057;-71
2022/01/20 08:40:13;;;;;;;15.93;10.88;;;3.40;99.90;;;;;;5013543;28;20057;-71
2022/01/20 08:42:44;;;;;;;36.33;27.48;;;3.40;99.90;;;;;;4995095;28;20153;-70
2022/01/20 08:45:15;;;;;;;14.23;10.63;;;3.50;99.90;;;;;;4980045;28;20123;-71
2022/01/20 08:47:43;;;;;;;19.75;10.38;;;3.50;99.90;;;;;;4993911;28;20143;-70
2022/01/20 08:50:13;;;;;;;21.73;11.35;;;3.40;99.90;;;;;;5012487;28;20438;-73
2022/01/20 08:52:40;;;;;;;15.85;11.30;;;3.40;99.90;;;;;;4996298;28;20050;-71
2022/01/20 08:55:09;;;;;;;14.57;10.60;;;3.40;99.90;;;;;;4992610;28;20046;-71
2022/01/20 08:57:46;;;;;;;15.95;11.27;;;3.30;99.90;;;;;;4992046;28;20046;-72
2022/01/20 09:00:16;;;;;;;17.77;11.45;;;3.20;99.90;;;;;;4987782;28;20061;-71
2022/01/20 09:02:54;;;;;;;13.45;10.77;;;3.10;99.90;;;;;;5007634;28;20053;-73
2022/01/20 09:05:23;;;;;;;16.25;11.32;;;3.10;99.90;;;;;;4994530;28;20057;-73
2022/01/20 09:07:54;;;;;;;19.27;11.32;;;3.10;99.90;;;;;;5011628;28;20050;-73
2022/01/20 09:10:21;;;;;;;19.48;12.27;;;3.10;99.90;;;;;;4978164;28;20050;-73
2022/01/20 09:15:39;;;;;;;18.65;11.85;;;3.00;99.90;;;;;;4990589;28;20054;-74
2022/01/20 09:18:24;;;;;;;18.92;11.75;;;3.00;99.90;;;;;;4981723;28;20414;-72
2022/01/20 09:20:54;;;;;;;18.10;12.75;;;3.00;99.90;;;;;;4994160;28;20049;-73
2022/01/20 09:23:21;;;;;;;20.13;12.70;;;2.90;99.90;;;;;;4975689;28;20046;-73
2022/01/20 09:25:49;;;;;;;35.25;31.95;;;2.90;99.90;;;;;;4992975;28;20410;-73
2022/01/20 09:28:18;;;;;;;21.05;13.88;;;2.90;99.90;;;;;;5007042;28;20050;-73
2022/01/20 09:30:46;;;;;;;20.77;13.07;;;2.80;99.90;;;;;;5009907;28;20156;-73
2022/01/20 09:33:24;;;;;;;22.88;14.38;;;2.80;99.90;;;;;;5010327;28;20391;-72
2022/01/20 09:35:53;;;;;;;21.45;13.60;;;2.80;99.90;;;;;;5012528;28;20080;-73
2022/01/20 09:38:21;;;;;;;20.55;13.23;;;2.80;99.90;;;;;;4995113;28;20525;-73
2022/01/20 09:40:49;;;;;;;28.98;15.48;;;2.80;99.90;;;;;;5002464;28;20090;-74
2022/01/20 09:43:18;;;;;;;25.55;15.02;;;2.70;99.90;;;;;;4993167;28;20116;-74
2022/01/20 09:45:54;;;;;;;23.98;16.65;;;2.60;99.90;;;;;;4994921;28;20049;-73
2022/01/20 09:48:25;;;;;;;24.48;15.27;;;2.50;99.90;;;;;;4993624;28;20127;-73
2022/01/20 09:51:27;;;;;;;25.42;15.52;;;2.50;99.90;;;;;;4966175;28;20049;-74
2022/01/20 09:54:07;;;;;;;26.77;16.08;;;2.40;99.90;;;;;;5010615;28;20137;-73
2022/01/20 09:56:47;;;;;;;23.92;15.75;;;2.40;99.90;;;;;;4980286;28;20058;-73
2022/01/20 09:59:17;;;;;;;25.10;15.60;;;2.40;99.90;;;;;;4994818;28;20136;-73
2022/01/20 10:01:47;;;;;;;24.20;14.82;;;2.40;99.90;;;;;;5009158;28;20069;-73
2022/01/20 10:04:22;;;;;;;22.73;14.10;;;2.40;99.90;;;;;;5010538;28;20068;-73
2022/01/20 10:07:00;;;;;;;22.77;14.15;;;2.40;99.90;;;;;;4994090;28;20137;-75
2022/01/20 10:09:34;;;;;;;21.15;13.68;;;2.40;99.90;;;;;;5027282;28;20050;-74
2022/01/20 10:12:14;;;;;;;18.80;13.75;;;2.40;99.90;;;;;;5008239;28;20038;-73
2022/01/20 10:15:05;;;;;;;23.17;14.50;;;2.30;99.90;;;;;;4978207;28;20576;-73
2022/01/20 10:17:46;;;;;;;21.60;14.05;;;2.30;99.90;;;;;;5012165;28;20120;-74
2022/01/20 10:20:17;;;;;;;24.80;13.90;;;2.30;99.90;;;;;;5008520;28;20108;-74
2022/01/20 10:23:06;;;;;;;20.75;12.50;;;2.20;99.90;;;;;;4994627;28;20046;-74
2022/01/20 10:26:08;;;;;;;24.70;21.02;;;2.30;99.90;;;;;;4991767;28;20054;-74
2022/01/20 10:28:53;;;;;;;23.80;13.93;;;2.30;99.90;;;;;;5024793;28;20053;-74
2022/01/20 10:31:40;;;;;;;20.83;12.95;;;2.20;99.90;;;;;;5002321;28;20046;-74
2022/01/20 10:34:20;;;;;;;17.15;12.13;;;2.20;99.90;;;;;;4985289;28;20489;-72
2022/01/20 10:36:52;;;;;;;38.65;34.80;;;2.20;99.90;;;;;;5011816;28;20242;-72
2022/01/20 10:39:38;;;;;;;25.10;13.40;;;2.20;99.90;;;;;;5007209;28;20046;-73
2022/01/20 10:42:08;;;;;;;23.52;15.98;;;2.20;99.90;;;;;;4989910;28;20062;-74
2022/01/20 10:44:45;;;;;;;25.33;17.83;;;2.20;99.90;;;;;;4972415;28;20054;-73
2022/01/20 10:47:16;;;;;;;34.72;19.85;;;2.30;99.90;;;;;;4990628;28;20399;-72
2022/01/20 10:49:45;;;;;;;29.67;21.15;;;2.30;99.90;;;;;;4993157;28;20529;-74
2022/01/20 10:52:17;;;;;;;34.08;21.77;;;2.30;99.90;;;;;;4992821;28;20058;-74
2022/01/20 10:54:49;;;;;;;29.48;19.95;;;2.20;99.90;;;;;;5005589;28;20542;-73
2022/01/20 10:57:28;;;;;;;21.30;15.23;;;2.20;99.90;;;;;;4992036;28;20454;-73
2022/01/20 11:00:02;;;;;;;18.40;13.10;;;2.20;99.90;;;;;;4993753;28;20065;-74
2022/01/20 11:02:51;;;;;;;19.90;12.98;;;2.20;99.90;;;;;;4976216;28;20077;-74
2022/01/20 11:05:19;;;;;;;17.25;12.18;;;2.20;99.90;;;;;;4990431;28;20054;-74
2022/01/20 11:07:49;;;;;;;21.33;12.98;;;2.20;99.90;;;;;;4990706;28;20046;-74
2022/01/20 11:10:18;;;;;;;23.85;13.18;;;2.20;99.90;;;;;;4992114;28;20546;-75
2022/01/20 11:13:10;;;;;;;18.83;12.30;;;2.20;99.90;;;;;;4982375;28;20061;-74
2022/01/20 11:15:41;;;;;;;18.97;13.20;;;2.20;99.90;;;;;;4979804;28;20461;-72
2022/01/20 11:18:10;;;;;;;20.92;13.43;;;2.20;99.90;;;;;;5005970;28;20462;-74
2022/01/20 11:20:42;;;;;;;19.52;12.75;;;2.20;99.90;;;;;;4991420;28;20054;-73
2022/01/20 11:23:11;;;;;;;18.48;12.93;;;2.20;99.90;;;;;;5009608;28;20058;-73
2022/01/20 11:25:48;;;;;;;30.48;22.60;;;2.10;99.90;;;;;;5018206;28;20140;-74
2022/01/20 11:28:27;;;;;;;20.73;13.20;;;2.10;99.90;;;;;;4989727;28;20610;-74
2022/01/20 11:31:06;;;;;;;19.13;13.23;;;2.10;99.90;;;;;;4997500;28;20136;-74
2022/01/20 11:33:53;;;;;;;18.85;13.07;;;2.10;99.90;;;;;;5008489;28;20053;-73
2022/01/20 11:36:25;;;;;;;28.25;14.20;;;2.00;99.90;;;;;;5010404;28;20057;-75
2022/01/20 11:39:00;;;;;;;23.10;14.10;;;2.00;99.90;;;;;;5009371;28;20057;-74
2022/01/20 11:41:40;;;;;;;23.95;14.63;;;2.00;99.90;;;;;;4993140;28;20052;-74
2022/01/20 11:44:12;;;;;;;32.65;29.08;;;2.00;99.90;;;;;;4973753;28;20123;-74
2022/01/20 11:46:44;;;;;;;22.45;13.32;;;2.00;99.90;;;;;;4982927;28;20136;-75
2022/01/20 11:49:14;;;;;;;22.35;14.95;;;2.00;99.90;;;;;;5009674;28;20072;-75
2022/01/20 11:51:48;;;;;;;21.65;15.02;;;2.00;99.90;;;;;;5009744;28;20057;-74
2022/01/20 11:54:29;;;;;;;26.25;17.38;;;1.90;99.90;;;;;;5008334;28;20046;-74
2022/01/20 11:57:12;;;;;;;27.02;18.83;;;1.90;99.90;;;;;;4992915;28;20081;-74
2022/01/20 11:59:43;;;;;;;23.52;16.17;;;1.90;99.90;;;;;;5010279;28;20073;-75
2022/01/20 12:02:11;;;;;;;23.92;14.07;;;1.90;99.90;;;;;;4989429;28;20422;-75
2022/01/20 12:04:43;;;;;;;21.10;13.85;;;1.90;99.90;;;;;;4988642;28;20256;-74
2022/01/20 12:07:26;;;;;;;22.25;13.85;;;1.90;99.90;;;;;;4978909;28;20093;-74
2022/01/20 12:10:05;;;;;;;21.20;13.73;;;1.90;99.90;;;;;;4987799;28;20033;-74
2022/01/20 12:12:35;;;;;;;21.58;14.20;;;1.90;99.90;;;;;;5007866;28;20596;-74
2022/01/20 12:15:11;;;;;;;18.25;11.85;;;1.90;99.90;;;;;;5009531;28;20421;-74
2022/01/20 12:17:41;;;;;;;19.23;11.38;;;1.90;99.90;;;;;;4983513;28;20494;-73
2022/01/20 12:20:12;;;;;;;16.52;11.68;;;1.90;99.90;;;;;;5008478;28;20786;-74
2022/01/20 12:22:44;;;;;;;17.20;11.85;;;1.90;99.90;;;;;;5009446;28;20050;-73
2022/01/20 12:25:17;;;;;;;16.48;10.75;;;1.90;99.90;;;;;;4990620;28;20058;-73
2022/01/20 12:27:48;;;;;;;22.63;12.15;;;1.90;99.90;;;;;;5008677;28;20046;-73
2022/01/20 12:30:22;;;;;;;18.88;11.48;;;1.90;99.90;;;;;;4986356;28;20050;-75
2022/01/20 12:33:06;;;;;;;39.35;11.80;;;1.80;99.90;;;;;;4990963;28;20054;-74
2022/01/20 12:35:41;;;;;;;19.60;11.43;;;1.80;99.90;;;;;;5010262;28;20091;-74
2022/01/20 12:38:25;;;;;;;19.60;11.10;;;1.80;99.90;;;;;;5010127;28;20046;-74
2022/01/20 12:41:05;;;;;;;19.95;12.30;;;1.80;99.90;;;;;;5005124;28;20165;-76
2022/01/20 12:43:43;;;;;;;21.45;11.75;;;1.80;99.90;;;;;;4995554;28;20145;-74
2022/01/20 12:46:15;;;;;;;38.10;32.10;;;1.80;99.90;;;;;;4998077;28;20088;-74
2022/01/20 12:48:55;;;;;;;19.13;14.25;;;1.70;99.90;;;;;;4991294;28;20069;-74
2022/01/20 12:51:33;;;;;;;19.27;13.57;;;1.70;99.90;;;;;;5010429;28;20364;-76
2022/01/20 12:54:11;;;;;;;18.35;13.27;;;1.80;99.90;;;;;;4999867;28;20034;-74
2022/01/20 12:56:43;;;;;;;17.60;12.25;;;1.80;99.90;;;;;;5006815;28;20058;-73
2022/01/20 12:59:18;;;;;;;16.88;12.02;;;1.80;99.90;;;;;;4994948;28;20050;-74
2022/01/20 13:01:47;;;;;;;17.48;11.32;;;1.80;99.90;;;;;;4988345;28;20066;-74
2022/01/20 13:04:17;;;;;;;14.10;9.90;;;1.80;99.90;;;;;;5008161;28;20088;-73
2022/01/20 13:06:52;;;;;;;16.45;10.70;;;1.80;99.90;;;;;;5010471;28;20050;-74
2022/01/20 13:09:23;;;;;;;16.50;12.32;;;1.80;99.90;;;;;;4986834;28;20041;-74
2022/01/20 13:11:57;;;;;;;20.13;11.48;;;1.70;99.90;;;;;;4995000;28;20173;-73
2022/01/20 13:14:38;;;;;;;17.85;11.00;;;1.80;99.90;;;;;;5016281;28;20092;-73
2022/01/20 13:17:07;;;;;;;14.20;10.23;;;1.80;99.90;;;;;;5011162;28;20123;-74
2022/01/20 13:19:38;;;;;;;19.38;11.07;;;1.80;99.90;;;;;;5011058;28;20415;-73
2022/01/20 13:22:07;;;;;;;40.90;36.78;;;1.80;99.90;;;;;;4977245;28;20046;-74
2022/01/20 13:24:37;;;;;;;17.15;10.75;;;1.80;99.90;;;;;;5010853;28;20560;-74
2022/01/20 13:27:08;;;;;;;17.13;11.98;;;1.70;99.90;;;;;;5010198;28;20145;-75
2022/01/20 13:29:49;;;;;;;21.52;12.00;;;1.70;99.90;;;;;;5011912;28;20156;-74
2022/01/20 13:32:17;;;;;;;15.45;11.48;;;1.70;99.90;;;;;;5011761;28;20046;-74
2022/01/20 13:34:57;;;;;;;16.98;12.60;;;1.70;99.90;;;;;;5011134;28;20133;-74
2022/01/20 13:37:25;;;;;;;18.50;11.95;;;1.60;99.90;;;;;;5011921;28;20104;-73
2022/01/20 13:39:57;;;;;;;23.17;12.15;;;1.60;99.90;;;;;;5013000;28;20046;-73
2022/01/20 13:42:38;;;;;;;16.10;10.27;;;1.60;99.90;;;;;;5012437;28;20080;-76
2022/01/20 13:45:13;;;;;;;20.00;11.40;;;1.50;99.90;;;;;;4994492;28;20042;-76
2022/01/20 13:47:55;;;;;;;18.80;11.57;;;1.60;99.90;;;;;;5011674;28;20057;-75
2022/01/20 13:50:25;;;;;;;28.02;11.82;;;1.60;99.90;;;;;;5005477;28;20710;-75
2022/01/20 13:52:54;;;;;;;19.17;11.57;;;1.60;99.90;;;;;;5013456;28;20123;-74
2022/01/20 13:55:28;;;;;;;18.05;11.43;;;1.60;99.90;;;;;;5013372;28;20041;-75
2022/01/20 13:57:57;;;;;;;18.02;11.48;;;1.60;99.90;;;;;;5011500;28;20058;-74